»·PEaware :: N714MM KSMX-KBFL

N714MM :: KSMX-KBFL

FLIGHT INFORMATION

Flight Status: Arrived
Operator: Privately registered:
United States
More flights under this callsign
Pilot: Micheal McAlexander (8759)
Aircraft: BEECH AIRCRAFT BONANZA
(BE35)
More flights by this aircraft type
Origin: KSMX Santa Maria Pub/Capt Hancock
United States
Destination: KBFL Meadows
United States
More flights between these airports :: More routes between these airports
Route: FLW
File this flight plan on PilotEdge
Remarks:
Altitude:
(Current/Filed)
7,500ft
Speed:
(Current/Filed)
150kts
Departed: 28-May-17 01:40 PM
Arrived: 28-May-17 02:35 PM
Distance/Time
Traveled:
76nm/0:55
Distance/Time
To Go:
Arrived

Flight Plot

Page will automatically refresh every two minutes.


Map Options




Map Legend


Flown Route
Filed Route
Departure Airport
Arrival Airport
Navaid (VOR, NDB)
Fix

Horizontal Profiles

Position Reports

Time Latitude Longitude Heading Altitude Ground
Speed
28-May-17 13:29 34.896804 -120.445899 273 264ft 0kts
28-May-17 13:30 34.896804 -120.445899 273 264ft 0kts
28-May-17 13:31 34.896804 -120.445899 273 264ft 0kts
28-May-17 13:32 34.896804 -120.445899 273 264ft 0kts
28-May-17 13:33 34.896804 -120.445899 273 264ft 0kts
28-May-17 13:34 34.896804 -120.445899 273 264ft 0kts
28-May-17 13:35 34.896804 -120.445899 273 264ft 0kts
28-May-17 13:36 34.896804 -120.445899 273 264ft 0kts
28-May-17 13:37 34.895957 -120.445799 133 265ft 10kts
28-May-17 13:38 34.894122 -120.444993 162 264ft 13kts
28-May-17 13:39 34.893078 -120.444987 180 265ft 0kts
28-May-17 13:40 34.893078 -120.444987 180 265ft 0kts
28-May-17 13:41 34.892823 -120.445786 314 264ft 10kts
28-May-17 13:42 34.895605 -120.449089 317 357ft 75kts
28-May-17 13:43 34.905237 -120.457220 339 918ft 96kts
28-May-17 13:44 34.917456 -120.456134 47 1701ft 96kts
28-May-17 13:45 34.923293 -120.437266 72 2272ft 118kts
28-May-17 13:46 34.928546 -120.417265 71 2940ft 119kts
28-May-17 13:47 34.934337 -120.396198 70 3651ft 117kts
28-May-17 13:48 34.940104 -120.375909 70 4336ft 117kts
28-May-17 13:49 34.945370 -120.357784 70 4915ft 116kts
28-May-17 13:50 34.951088 -120.338360 69 5547ft 115kts
28-May-17 13:51 34.956753 -120.319287 69 6122ft 114kts
28-May-17 13:52 34.962270 -120.300818 69 6657ft 113kts
28-May-17 13:53 34.968109 -120.281346 69 7207ft 112kts
28-May-17 13:54 34.973835 -120.262167 70 7417ft 128kts
28-May-17 13:55 34.981701 -120.235697 70 7414ft 150kts
28-May-17 13:56 34.989740 -120.208854 70 7413ft 159kts
28-May-17 13:57 34.997832 -120.181966 70 7410ft 164kts
28-May-17 13:58 35.007634 -120.149392 70 7409ft 167kts
28-May-17 13:59 35.017173 -120.117671 70 7409ft 169kts
28-May-17 14:00 35.024631 -120.092877 69 7408ft 170kts
28-May-17 14:01 35.033194 -120.064390 69 7409ft 172kts
28-May-17 14:02 35.041081 -120.038135 69 7409ft 172kts
28-May-17 14:03 35.050335 -120.007302 69 7409ft 173kts
28-May-17 14:04 35.059982 -119.975166 70 7408ft 172kts
28-May-17 14:05 35.067751 -119.949156 70 7408ft 171kts
28-May-17 14:06 35.076630 -119.919459 70 7408ft 171kts
28-May-17 14:07 35.085847 -119.888601 70 7408ft 171kts
28-May-17 14:08 35.096304 -119.858038 58 7408ft 171kts
28-May-17 14:09 35.108111 -119.834147 58 7409ft 171kts
28-May-17 14:10 35.121748 -119.806565 58 7415ft 170kts
28-May-17 14:11 35.134352 -119.780906 59 7417ft 171kts
28-May-17 14:12 35.147199 -119.753871 59 7417ft 171kts
28-May-17 14:13 35.161321 -119.724161 59 7417ft 171kts
28-May-17 14:14 35.174725 -119.695959 59 7418ft 171kts
28-May-17 14:15 35.188682 -119.666595 59 7439ft 172kts
28-May-17 14:16 35.200746 -119.641216 59 7481ft 170kts
28-May-17 14:17 35.213626 -119.614113 59 7481ft 170kts
28-May-17 14:18 35.226576 -119.586862 59 7481ft 170kts
28-May-17 14:19 35.240459 -119.557646 59 7481ft 170kts
28-May-17 14:20 35.253337 -119.529890 63 7481ft 170kts
28-May-17 14:21 35.267535 -119.493157 64 7481ft 171kts
28-May-17 14:22 35.282667 -119.453777 64 7481ft 171kts
28-May-17 14:23 35.297125 -119.416149 64 7481ft 171kts
28-May-17 14:24 35.312721 -119.375560 64 7481ft 171kts
28-May-17 14:25 35.326799 -119.338927 64 7385ft 173kts
28-May-17 14:26 35.342520 -119.298351 64 6701ft 172kts
28-May-17 14:27 35.357784 -119.258817 64 6032ft 172kts
28-May-17 14:28 35.372931 -119.219574 64 5367ft 172kts
28-May-17 14:29 35.388191 -119.180028 64 4515ft 185kts
28-May-17 14:30 35.404906 -119.136654 64 3133ft 197kts
28-May-17 14:31 35.407578 -119.095916 121 2867ft 159kts
28-May-17 14:32 35.395045 -119.061213 110 2129ft 176kts
28-May-17 14:33 35.387921 -119.023585 50 1770ft 153kts
28-May-17 14:34 35.409093 -119.025909 312 1161ft 93kts
28-May-17 14:35 35.421756 -119.041707 315 720ft 79kts
28-May-17 14:36 35.432830 -119.055049 314 523ft 71kts
28-May-17 14:37 35.439766 -119.062689 353 496ft 13kts
28-May-17 14:38 35.440573 -119.062490 25 498ft 0kts
28-May-17 14:39 35.439405 -119.060689 135 498ft 29kts
28-May-17 14:40 35.435019 -119.055394 135 492ft 34kts
28-May-17 14:41 35.430800 -119.050275 134 492ft 18kts

Navigation Log

Ident Type
1. KSMX Airport
2. FLW Navaid
3. KBFL Airport